sensor_id;sensor_type;location;lat;lon;timestamp;P1;durP1;ratioP1;P2;durP2;ratioP2
19776;SDS011;10047;42.490;26.012;2023-04-01T00:00:15;21.00;;;14.27;;
19776;SDS011;10047;42.490;26.012;2023-04-01T00:02:41;19.38;;;13.73;;
19776;SDS011;10047;42.490;26.012;2023-04-01T00:05:06;15.55;;;10.85;;
19776;SDS011;10047;42.490;26.012;2023-04-01T00:07:32;17.55;;;11.35;;
19776;SDS011;10047;42.490;26.012;2023-04-01T00:09:58;17.40;;;12.00;;
19776;SDS011;10047;42.490;26.012;2023-04-01T00:12:23;20.13;;;11.52;;
19776;SDS011;10047;42.490;26.012;2023-04-01T00:14:50;17.38;;;12.60;;
19776;SDS011;10047;42.490;26.012;2023-04-01T00:17:16;21.67;;;12.82;;
19776;SDS011;10047;42.490;26.012;2023-04-01T00:19:41;19.20;;;12.85;;
19776;SDS011;10047;42.490;26.012;2023-04-01T00:22:07;23.33;;;14.88;;
19776;SDS011;10047;42.490;26.012;2023-04-01T00:24:34;24.67;;;14.82;;
19776;SDS011;10047;42.490;26.012;2023-04-01T00:26:59;20.92;;;14.43;;
19776;SDS011;10047;42.490;26.012;2023-04-01T00:29:25;22.42;;;15.18;;
19776;SDS011;10047;42.490;26.012;2023-04-01T00:31:54;27.40;;;14.50;;
19776;SDS011;10047;42.490;26.012;2023-04-01T00:34:20;23.30;;;15.55;;
19776;SDS011;10047;42.490;26.012;2023-04-01T00:36:46;25.83;;;15.48;;
19776;SDS011;10047;42.490;26.012;2023-04-01T00:39:11;22.02;;;15.50;;
19776;SDS011;10047;42.490;26.012;2023-04-01T00:41:36;23.95;;;15.55;;
19776;SDS011;10047;42.490;26.012;2023-04-01T00:44:14;20.90;;;14.75;;
19776;SDS011;10047;42.490;26.012;2023-04-01T00:46:44;22.77;;;13.85;;
19776;SDS011;10047;42.490;26.012;2023-04-01T00:49:10;18.05;;;13.40;;
19776;SDS011;10047;42.490;26.012;2023-04-01T00:51:36;23.02;;;14.23;;
19776;SDS011;10047;42.490;26.012;2023-04-01T00:54:03;22.33;;;13.85;;
19776;SDS011;10047;42.490;26.012;2023-04-01T00:56:32;20.48;;;13.75;;
19776;SDS011;10047;42.490;26.012;2023-04-01T00:59:02;18.42;;;12.98;;
19776;SDS011;10047;42.490;26.012;2023-04-01T01:01:33;16.88;;;11.93;;
19776;SDS011;10047;42.490;26.012;2023-04-01T01:04:00;22.25;;;12.77;;
19776;SDS011;10047;42.490;26.012;2023-04-01T01:08:57;20.20;;;11.32;;
19776;SDS011;10047;42.490;26.012;2023-04-01T01:11:36;17.75;;;11.25;;
19776;SDS011;10047;42.490;26.012;2023-04-01T01:14:09;15.00;;;10.90;;
19776;SDS011;10047;42.490;26.012;2023-04-01T01:16:43;19.05;;;11.27;;
19776;SDS011;10047;42.490;26.012;2023-04-01T01:22:27;15.57;;;8.93;;
19776;SDS011;10047;42.490;26.012;2023-04-01T01:27:34;15.43;;;8.90;;
19776;SDS011;10047;42.490;26.012;2023-04-01T01:30:13;12.93;;;8.00;;
19776;SDS011;10047;42.490;26.012;2023-04-01T01:35:48;14.77;;;7.90;;
19776;SDS011;10047;42.490;26.012;2023-04-01T01:38:17;14.20;;;7.97;;
19776;SDS011;10047;42.490;26.012;2023-04-01T01:40:48;12.93;;;8.60;;
19776;SDS011;10047;42.490;26.012;2023-04-01T01:43:23;11.10;;;8.00;;
19776;SDS011;10047;42.490;26.012;2023-04-01T01:45:57;10.18;;;6.18;;
19776;SDS011;10047;42.490;26.012;2023-04-01T01:48:25;16.83;;;8.85;;
19776;SDS011;10047;42.490;26.012;2023-04-01T01:50:53;18.67;;;8.32;;
19776;SDS011;10047;42.490;26.012;2023-04-01T01:53:19;17.15;;;8.43;;
19776;SDS011;10047;42.490;26.012;2023-04-01T01:55:45;18.30;;;8.63;;
19776;SDS011;10047;42.490;26.012;2023-04-01T02:01:05;15.57;;;9.52;;
19776;SDS011;10047;42.490;26.012;2023-04-01T02:03:35;18.17;;;9.85;;
19776;SDS011;10047;42.490;26.012;2023-04-01T02:06:03;20.60;;;10.20;;
19776;SDS011;10047;42.490;26.012;2023-04-01T02:08:36;15.73;;;9.90;;
19776;SDS011;10047;42.490;26.012;2023-04-01T02:11:12;17.88;;;10.02;;
19776;SDS011;10047;42.490;26.012;2023-04-01T02:13:42;15.82;;;10.00;;
19776;SDS011;10047;42.490;26.012;2023-04-01T02:16:14;17.38;;;10.65;;
19776;SDS011;10047;42.490;26.012;2023-04-01T02:18:46;18.90;;;11.20;;
19776;SDS011;10047;42.490;26.012;2023-04-01T02:21:14;19.30;;;10.82;;
19776;SDS011;10047;42.490;26.012;2023-04-01T02:23:41;18.20;;;10.80;;
19776;SDS011;10047;42.490;26.012;2023-04-01T02:26:07;17.02;;;11.30;;
19776;SDS011;10047;42.490;26.012;2023-04-01T02:28:36;19.20;;;11.70;;
19776;SDS011;10047;42.490;26.012;2023-04-01T02:31:04;20.02;;;12.32;;
19776;SDS011;10047;42.490;26.012;2023-04-01T02:33:30;16.60;;;11.65;;
19776;SDS011;10047;42.490;26.012;2023-04-01T02:35:57;18.63;;;11.80;;
19776;SDS011;10047;42.490;26.012;2023-04-01T02:38:22;18.77;;;12.23;;
19776;SDS011;10047;42.490;26.012;2023-04-01T02:40:50;20.75;;;11.93;;
19776;SDS011;10047;42.490;26.012;2023-04-01T02:43:21;16.15;;;11.05;;
19776;SDS011;10047;42.490;26.012;2023-04-01T02:45:46;15.70;;;10.68;;
19776;SDS011;10047;42.490;26.012;2023-04-01T02:48:12;17.92;;;11.23;;
19776;SDS011;10047;42.490;26.012;2023-04-01T02:50:39;15.90;;;10.82;;
19776;SDS011;10047;42.490;26.012;2023-04-01T02:53:04;15.23;;;10.60;;
19776;SDS011;10047;42.490;26.012;2023-04-01T02:55:31;16.80;;;11.13;;
19776;SDS011;10047;42.490;26.012;2023-04-01T02:57:57;14.90;;;10.77;;
19776;SDS011;10047;42.490;26.012;2023-04-01T03:00:23;15.48;;;10.70;;
19776;SDS011;10047;42.490;26.012;2023-04-01T03:02:48;18.13;;;10.85;;
19776;SDS011;10047;42.490;26.012;2023-04-01T03:05:13;22.45;;;10.65;;
19776;SDS011;10047;42.490;26.012;2023-04-01T03:07:39;15.82;;;9.85;;
19776;SDS011;10047;42.490;26.012;2023-04-01T03:10:05;17.92;;;10.15;;
19776;SDS011;10047;42.490;26.012;2023-04-01T03:12:32;17.10;;;9.75;;
19776;SDS011;10047;42.490;26.012;2023-04-01T03:14:57;13.18;;;9.55;;
19776;SDS011;10047;42.490;26.012;2023-04-01T03:17:22;13.38;;;9.55;;
19776;SDS011;10047;42.490;26.012;2023-04-01T03:19:48;15.75;;;9.73;;
19776;SDS011;10047;42.490;26.012;2023-04-01T03:22:13;15.02;;;10.38;;
19776;SDS011;10047;42.490;26.012;2023-04-01T03:24:39;15.13;;;10.18;;
19776;SDS011;10047;42.490;26.012;2023-04-01T03:27:05;19.38;;;12.20;;
19776;SDS011;10047;42.490;26.012;2023-04-01T03:29:30;22.15;;;13.57;;
19776;SDS011;10047;42.490;26.012;2023-04-01T03:31:55;21.48;;;14.13;;
19776;SDS011;10047;42.490;26.012;2023-04-01T03:34:23;23.15;;;14.43;;
19776;SDS011;10047;42.490;26.012;2023-04-01T03:36:49;17.00;;;12.20;;
19776;SDS011;10047;42.490;26.012;2023-04-01T03:39:14;16.40;;;8.20;;
19776;SDS011;10047;42.490;26.012;2023-04-01T03:41:43;16.27;;;9.65;;
19776;SDS011;10047;42.490;26.012;2023-04-01T03:44:10;29.27;;;9.93;;
19776;SDS011;10047;42.490;26.012;2023-04-01T03:46:36;14.75;;;9.23;;
19776;SDS011;10047;42.490;26.012;2023-04-01T03:49:02;13.45;;;9.40;;
19776;SDS011;10047;42.490;26.012;2023-04-01T03:51:27;14.63;;;9.95;;
19776;SDS011;10047;42.490;26.012;2023-04-01T03:53:53;16.02;;;11.07;;
19776;SDS011;10047;42.490;26.012;2023-04-01T03:56:18;20.15;;;12.05;;
19776;SDS011;10047;42.490;26.012;2023-04-01T03:58:43;16.15;;;11.30;;
19776;SDS011;10047;42.490;26.012;2023-04-01T04:01:13;18.10;;;10.27;;
19776;SDS011;10047;42.490;26.012;2023-04-01T04:03:40;17.65;;;10.70;;
19776;SDS011;10047;42.490;26.012;2023-04-01T04:06:07;16.70;;;11.40;;
19776;SDS011;10047;42.490;26.012;2023-04-01T04:08:36;17.73;;;10.60;;
19776;SDS011;10047;42.490;26.012;2023-04-01T04:11:01;19.38;;;10.40;;
19776;SDS011;10047;42.490;26.012;2023-04-01T04:13:26;15.40;;;10.05;;
19776;SDS011;10047;42.490;26.012;2023-04-01T04:15:52;16.30;;;10.68;;
19776;SDS011;10047;42.490;26.012;2023-04-01T04:18:17;14.70;;;9.80;;
19776;SDS011;10047;42.490;26.012;2023-04-01T04:20:43;14.52;;;10.15;;
19776;SDS011;10047;42.490;26.012;2023-04-01T04:23:12;17.77;;;10.27;;
19776;SDS011;10047;42.490;26.012;2023-04-01T04:25:37;19.17;;;10.70;;
19776;SDS011;10047;42.490;26.012;2023-04-01T04:28:02;18.80;;;9.93;;
19776;SDS011;10047;42.490;26.012;2023-04-01T04:30:28;18.48;;;10.52;;
19776;SDS011;10047;42.490;26.012;2023-04-01T04:32:53;16.77;;;11.43;;
19776;SDS011;10047;42.490;26.012;2023-04-01T04:35:19;13.90;;;10.35;;
19776;SDS011;10047;42.490;26.012;2023-04-01T04:37:44;17.33;;;11.00;;
19776;SDS011;10047;42.490;26.012;2023-04-01T04:40:10;20.23;;;12.15;;
19776;SDS011;10047;42.490;26.012;2023-04-01T04:42:35;16.17;;;11.45;;
19776;SDS011;10047;42.490;26.012;2023-04-01T04:45:01;18.90;;;11.32;;
19776;SDS011;10047;42.490;26.012;2023-04-01T04:47:26;18.27;;;11.45;;
19776;SDS011;10047;42.490;26.012;2023-04-01T04:49:52;15.63;;;11.80;;
19776;SDS011;10047;42.490;26.012;2023-04-01T04:52:17;18.75;;;12.15;;
19776;SDS011;10047;42.490;26.012;2023-04-01T04:54:42;17.42;;;12.10;;
19776;SDS011;10047;42.490;26.012;2023-04-01T04:57:08;17.67;;;11.95;;
19776;SDS011;10047;42.490;26.012;2023-04-01T04:59:33;20.48;;;12.48;;
19776;SDS011;10047;42.490;26.012;2023-04-01T05:01:59;18.77;;;12.95;;
19776;SDS011;10047;42.490;26.012;2023-04-01T05:04:24;16.23;;;12.40;;
19776;SDS011;10047;42.490;26.012;2023-04-01T05:06:50;19.80;;;12.40;;
19776;SDS011;10047;42.490;26.012;2023-04-01T05:09:16;19.60;;;12.52;;
19776;SDS011;10047;42.490;26.012;2023-04-01T05:11:42;19.40;;;13.30;;
19776;SDS011;10047;42.490;26.012;2023-04-01T05:14:14;32.63;;;19.95;;
19776;SDS011;10047;42.490;26.012;2023-04-01T05:16:40;24.08;;;14.40;;
19776;SDS011;10047;42.490;26.012;2023-04-01T05:19:06;23.23;;;12.70;;
19776;SDS011;10047;42.490;26.012;2023-04-01T05:21:31;21.02;;;12.13;;
19776;SDS011;10047;42.490;26.012;2023-04-01T05:23:57;20.65;;;12.48;;
19776;SDS011;10047;42.490;26.012;2023-04-01T05:26:22;20.55;;;13.07;;
19776;SDS011;10047;42.490;26.012;2023-04-01T05:28:47;22.23;;;11.60;;
19776;SDS011;10047;42.490;26.012;2023-04-01T05:31:13;30.63;;;12.15;;
19776;SDS011;10047;42.490;26.012;2023-04-01T05:33:38;22.42;;;11.90;;
19776;SDS011;10047;42.490;26.012;2023-04-01T05:38:35;31.95;;;11.85;;
19776;SDS011;10047;42.490;26.012;2023-04-01T05:41:01;17.02;;;10.02;;
19776;SDS011;10047;42.490;26.012;2023-04-01T05:43:28;26.15;;;10.38;;
19776;SDS011;10047;42.490;26.012;2023-04-01T05:45:54;19.38;;;11.45;;
19776;SDS011;10047;42.490;26.012;2023-04-01T05:48:20;17.58;;;9.95;;
19776;SDS011;10047;42.490;26.012;2023-04-01T05:50:45;19.40;;;10.82;;
19776;SDS011;10047;42.490;26.012;2023-04-01T05:53:11;14.27;;;8.68;;
19776;SDS011;10047;42.490;26.012;2023-04-01T05:55:36;14.00;;;10.18;;
19776;SDS011;10047;42.490;26.012;2023-04-01T05:58:01;18.38;;;10.10;;
19776;SDS011;10047;42.490;26.012;2023-04-01T06:00:27;18.95;;;10.00;;
19776;SDS011;10047;42.490;26.012;2023-04-01T06:02:52;14.70;;;9.05;;
19776;SDS011;10047;42.490;26.012;2023-04-01T06:05:19;15.25;;;9.65;;
19776;SDS011;10047;42.490;26.012;2023-04-01T06:07:46;13.05;;;9.43;;
19776;SDS011;10047;42.490;26.012;2023-04-01T06:10:16;15.43;;;9.25;;
19776;SDS011;10047;42.490;26.012;2023-04-01T06:12:51;12.90;;;8.33;;
19776;SDS011;10047;42.490;26.012;2023-04-01T06:15:39;12.85;;;7.82;;
19776;SDS011;10047;42.490;26.012;2023-04-01T06:31:09;11.30;;;8.13;;
19776;SDS011;10047;42.490;26.012;2023-04-01T06:34:25;12.70;;;7.97;;
19776;SDS011;10047;42.490;26.012;2023-04-01T06:42:09;13.93;;;8.10;;
19776;SDS011;10047;42.490;26.012;2023-04-01T06:45:02;15.18;;;7.65;;
19776;SDS011;10047;42.490;26.012;2023-04-01T06:50:37;15.15;;;8.02;;
19776;SDS011;10047;42.490;26.012;2023-04-01T06:53:21;13.23;;;8.32;;
19776;SDS011;10047;42.490;26.012;2023-04-01T06:55:53;15.85;;;9.00;;
19776;SDS011;10047;42.490;26.012;2023-04-01T06:58:26;13.07;;;8.75;;
19776;SDS011;10047;42.490;26.012;2023-04-01T07:00:59;15.73;;;8.60;;
19776;SDS011;10047;42.490;26.012;2023-04-01T07:03:32;15.70;;;8.57;;
19776;SDS011;10047;42.490;26.012;2023-04-01T07:06:02;13.88;;;8.25;;
19776;SDS011;10047;42.490;26.012;2023-04-01T07:08:30;12.32;;;8.20;;
19776;SDS011;10047;42.490;26.012;2023-04-01T07:11:02;11.07;;;8.40;;
19776;SDS011;10047;42.490;26.012;2023-04-01T07:13:34;14.13;;;9.00;;
19776;SDS011;10047;42.490;26.012;2023-04-01T07:16:31;12.45;;;8.45;;
19776;SDS011;10047;42.490;26.012;2023-04-01T07:19:08;16.75;;;9.35;;
19776;SDS011;10047;42.490;26.012;2023-04-01T07:21:44;12.50;;;8.48;;
19776;SDS011;10047;42.490;26.012;2023-04-01T07:24:41;13.63;;;8.77;;
19776;SDS011;10047;42.490;26.012;2023-04-01T07:27:10;13.45;;;8.45;;
19776;SDS011;10047;42.490;26.012;2023-04-01T07:29:37;12.85;;;8.93;;
19776;SDS011;10047;42.490;26.012;2023-04-01T07:38:15;14.93;;;8.60;;
19776;SDS011;10047;42.490;26.012;2023-04-01T07:45:57;14.50;;;7.70;;
19776;SDS011;10047;42.490;26.012;2023-04-01T07:51:13;11.77;;;7.72;;
19776;SDS011;10047;42.490;26.012;2023-04-01T07:56:25;11.77;;;8.38;;
19776;SDS011;10047;42.490;26.012;2023-04-01T08:01:40;11.25;;;7.88;;
19776;SDS011;10047;42.490;26.012;2023-04-01T08:07:20;12.00;;;7.68;;
19776;SDS011;10047;42.490;26.012;2023-04-01T08:10:13;12.13;;;6.07;;
19776;SDS011;10047;42.490;26.012;2023-04-01T08:18:23;11.90;;;6.38;;
19776;SDS011;10047;42.490;26.012;2023-04-01T08:20:55;11.13;;;5.88;;
19776;SDS011;10047;42.490;26.012;2023-04-01T08:23:28;11.70;;;6.03;;
19776;SDS011;10047;42.490;26.012;2023-04-01T08:26:02;11.70;;;5.63;;
19776;SDS011;10047;42.490;26.012;2023-04-01T08:28:39;9.80;;;5.20;;
19776;SDS011;10047;42.490;26.012;2023-04-01T08:31:17;13.30;;;5.57;;
19776;SDS011;10047;42.490;26.012;2023-04-01T08:33:50;8.88;;;5.50;;
19776;SDS011;10047;42.490;26.012;2023-04-01T08:36:20;11.95;;;5.00;;
19776;SDS011;10047;42.490;26.012;2023-04-01T08:50:03;11.50;;;5.45;;
19776;SDS011;10047;42.490;26.012;2023-04-01T08:52:47;11.23;;;5.30;;
19776;SDS011;10047;42.490;26.012;2023-04-01T09:11:44;9.98;;;5.05;;
19776;SDS011;10047;42.490;26.012;2023-04-01T09:26:08;15.57;;;5.40;;
19776;SDS011;10047;42.490;26.012;2023-04-01T09:36:55;11.73;;;4.97;;
19776;SDS011;10047;42.490;26.012;2023-04-01T09:52:27;11.45;;;5.80;;
19776;SDS011;10047;42.490;26.012;2023-04-01T09:54:58;12.40;;;5.30;;
19776;SDS011;10047;42.490;26.012;2023-04-01T10:17:30;10.30;;;5.05;;
19776;SDS011;10047;42.490;26.012;2023-04-01T10:20:46;10.23;;;5.10;;
19776;SDS011;10047;42.490;26.012;2023-04-01T10:36:50;10.98;;;5.50;;
19776;SDS011;10047;42.490;26.012;2023-04-01T10:56:10;10.07;;;5.03;;
19776;SDS011;10047;42.490;26.012;2023-04-01T11:24:03;13.25;;;5.30;;
19776;SDS011;10047;42.490;26.012;2023-04-01T11:37:51;11.25;;;5.15;;
19776;SDS011;10047;42.490;26.012;2023-04-01T11:46:25;18.38;;;6.50;;
19776;SDS011;10047;42.490;26.012;2023-04-01T11:49:28;15.93;;;5.38;;
19776;SDS011;10047;42.490;26.012;2023-04-01T11:52:21;20.60;;;4.28;;
19776;SDS011;10047;42.490;26.012;2023-04-01T12:00:49;21.20;;;4.60;;
19776;SDS011;10047;42.490;26.012;2023-04-01T12:14:03;23.05;;;6.40;;
19776;SDS011;10047;42.490;26.012;2023-04-01T12:16:47;21.02;;;6.10;;
19776;SDS011;10047;42.490;26.012;2023-04-01T12:19:51;27.52;;;9.23;;
19776;SDS011;10047;42.490;26.012;2023-04-01T12:33:45;19.48;;;5.40;;
19776;SDS011;10047;42.490;26.012;2023-04-01T12:36:28;21.60;;;4.20;;
19776;SDS011;10047;42.490;26.012;2023-04-01T12:41:49;22.50;;;5.40;;
19776;SDS011;10047;42.490;26.012;2023-04-01T12:50:19;21.83;;;6.75;;
19776;SDS011;10047;42.490;26.012;2023-04-01T12:52:59;18.30;;;6.80;;
19776;SDS011;10047;42.490;26.012;2023-04-01T12:55:45;19.27;;;6.35;;
19776;SDS011;10047;42.490;26.012;2023-04-01T13:01:00;19.58;;;5.40;;
19776;SDS011;10047;42.490;26.012;2023-04-01T13:17:10;19.52;;;4.25;;
19776;SDS011;10047;42.490;26.012;2023-04-01T13:23:01;18.33;;;6.22;;
19776;SDS011;10047;42.490;26.012;2023-04-01T13:25:38;19.90;;;5.30;;
19776;SDS011;10047;42.490;26.012;2023-04-01T13:28:06;25.70;;;7.28;;
19776;SDS011;10047;42.490;26.012;2023-04-01T13:33:42;20.52;;;5.47;;
19776;SDS011;10047;42.490;26.012;2023-04-01T13:44:46;18.83;;;4.53;;
19776;SDS011;10047;42.490;26.012;2023-04-01T14:15:25;18.50;;;3.53;;
19776;SDS011;10047;42.490;26.012;2023-04-01T14:42:23;18.92;;;4.00;;
19776;SDS011;10047;42.490;26.012;2023-04-01T14:45:23;17.70;;;4.20;;
19776;SDS011;10047;42.490;26.012;2023-04-01T14:50:23;17.60;;;4.07;;
19776;SDS011;10047;42.490;26.012;2023-04-01T14:53:11;13.27;;;3.57;;
19776;SDS011;10047;42.490;26.012;2023-04-01T14:58:12;19.30;;;4.07;;
19776;SDS011;10047;42.490;26.012;2023-04-01T15:03:19;16.50;;;4.25;;
19776;SDS011;10047;42.490;26.012;2023-04-01T15:08:49;15.63;;;4.40;;
19776;SDS011;10047;42.490;26.012;2023-04-01T15:24:46;22.40;;;4.70;;
19776;SDS011;10047;42.490;26.012;2023-04-01T15:31:02;29.10;;;6.28;;
19776;SDS011;10047;42.490;26.012;2023-04-01T15:33:29;23.88;;;6.30;;
19776;SDS011;10047;42.490;26.012;2023-04-01T15:41:16;12.55;;;4.45;;
19776;SDS011;10047;42.490;26.012;2023-04-01T15:43:50;12.77;;;4.55;;
19776;SDS011;10047;42.490;26.012;2023-04-01T15:46:30;7.40;;;3.42;;
19776;SDS011;10047;42.490;26.012;2023-04-01T16:08:06;6.07;;;2.03;;
19776;SDS011;10047;42.490;26.012;2023-04-01T16:15:39;4.78;;;1.60;;
19776;SDS011;10047;42.490;26.012;2023-04-01T16:20:59;10.77;;;1.85;;
19776;SDS011;10047;42.490;26.012;2023-04-01T16:23:34;3.70;;;1.60;;
19776;SDS011;10047;42.490;26.012;2023-04-01T16:26:22;3.97;;;1.52;;
19776;SDS011;10047;42.490;26.012;2023-04-01T16:31:41;2.85;;;1.40;;
19776;SDS011;10047;42.490;26.012;2023-04-01T16:34:08;2.65;;;1.23;;
19776;SDS011;10047;42.490;26.012;2023-04-01T16:36:51;3.60;;;1.30;;
19776;SDS011;10047;42.490;26.012;2023-04-01T16:50:24;3.67;;;2.17;;
19776;SDS011;10047;42.490;26.012;2023-04-01T16:55:54;4.30;;;2.40;;
19776;SDS011;10047;42.490;26.012;2023-04-01T16:58:37;7.63;;;3.50;;
19776;SDS011;10047;42.490;26.012;2023-04-01T17:01:18;4.38;;;2.80;;
19776;SDS011;10047;42.490;26.012;2023-04-01T17:03:51;2.13;;;1.55;;
19776;SDS011;10047;42.490;26.012;2023-04-01T17:19:39;4.47;;;2.28;;
19776;SDS011;10047;42.490;26.012;2023-04-01T17:27:24;7.00;;;6.15;;
19776;SDS011;10047;42.490;26.012;2023-04-01T17:35:59;8.02;;;3.90;;
19776;SDS011;10047;42.490;26.012;2023-04-01T18:06:57;30.30;;;18.27;;
19776;SDS011;10047;42.490;26.012;2023-04-01T18:17:51;13.75;;;8.25;;
19776;SDS011;10047;42.490;26.012;2023-04-01T18:26:36;12.70;;;8.57;;
19776;SDS011;10047;42.490;26.012;2023-04-01T18:38:15;15.15;;;10.02;;
19776;SDS011;10047;42.490;26.012;2023-04-01T18:43:27;19.38;;;12.70;;
19776;SDS011;10047;42.490;26.012;2023-04-01T18:51:45;15.55;;;10.82;;
19776;SDS011;10047;42.490;26.012;2023-04-01T18:54:25;18.45;;;13.18;;
19776;SDS011;10047;42.490;26.012;2023-04-01T18:57:04;26.10;;;16.20;;
19776;SDS011;10047;42.490;26.012;2023-04-01T19:00:25;20.30;;;12.88;;
19776;SDS011;10047;42.490;26.012;2023-04-01T19:02:48;20.55;;;14.55;;
19776;SDS011;10047;42.490;26.012;2023-04-01T19:05:36;18.00;;;12.95;;
19776;SDS011;10047;42.490;26.012;2023-04-01T19:13:47;23.60;;;14.55;;
19776;SDS011;10047;42.490;26.012;2023-04-01T19:24:51;25.58;;;16.75;;
19776;SDS011;10047;42.490;26.012;2023-04-01T19:30:27;15.05;;;11.43;;
19776;SDS011;10047;42.490;26.012;2023-04-01T19:38:53;3.85;;;2.70;;
19776;SDS011;10047;42.490;26.012;2023-04-01T19:41:41;2.80;;;2.10;;
19776;SDS011;10047;42.490;26.012;2023-04-01T19:44:21;2.83;;;1.98;;
19776;SDS011;10047;42.490;26.012;2023-04-01T19:58:19;1.17;;;0.70;;
19776;SDS011;10047;42.490;26.012;2023-04-01T20:01:06;1.58;;;0.60;;
19776;SDS011;10047;42.490;26.012;2023-04-01T20:03:45;2.03;;;0.52;;
19776;SDS011;10047;42.490;26.012;2023-04-01T20:11:21;3.00;;;2.30;;
19776;SDS011;10047;42.490;26.012;2023-04-01T20:25:15;3.22;;;1.40;;
19776;SDS011;10047;42.490;26.012;2023-04-01T20:27:49;2.58;;;1.60;;
19776;SDS011;10047;42.490;26.012;2023-04-01T20:38:58;4.10;;;1.98;;
19776;SDS011;10047;42.490;26.012;2023-04-01T20:44:57;4.55;;;2.20;;
19776;SDS011;10047;42.490;26.012;2023-04-01T20:47:36;3.00;;;2.05;;
19776;SDS011;10047;42.490;26.012;2023-04-01T20:52:49;1.95;;;0.80;;
19776;SDS011;10047;42.490;26.012;2023-04-01T20:55:32;1.25;;;0.75;;
19776;SDS011;10047;42.490;26.012;2023-04-01T21:01:20;3.00;;;0.70;;
19776;SDS011;10047;42.490;26.012;2023-04-01T21:17:56;0.73;;;0.73;;
19776;SDS011;10047;42.490;26.012;2023-04-01T21:37:14;1.95;;;1.08;;
19776;SDS011;10047;42.490;26.012;2023-04-01T22:00:17;2.13;;;1.60;;
19776;SDS011;10047;42.490;26.012;2023-04-01T22:05:25;2.10;;;1.25;;
19776;SDS011;10047;42.490;26.012;2023-04-01T22:13:53;1.20;;;1.10;;
19776;SDS011;10047;42.490;26.012;2023-04-01T22:24:43;2.25;;;1.40;;
19776;SDS011;10047;42.490;26.012;2023-04-01T22:27:42;1.77;;;1.40;;
19776;SDS011;10047;42.490;26.012;2023-04-01T22:32:49;2.00;;;1.30;;
19776;SDS011;10047;42.490;26.012;2023-04-01T22:38:11;1.90;;;1.30;;
19776;SDS011;10047;42.490;26.012;2023-04-01T22:43:11;1.85;;;1.40;;
19776;SDS011;10047;42.490;26.012;2023-04-01T22:51:15;2.15;;;1.50;;
19776;SDS011;10047;42.490;26.012;2023-04-01T22:53:51;3.08;;;1.70;;
19776;SDS011;10047;42.490;26.012;2023-04-01T22:56:39;3.55;;;1.85;;
19776;SDS011;10047;42.490;26.012;2023-04-01T22:59:17;3.20;;;1.60;;
19776;SDS011;10047;42.490;26.012;2023-04-01T23:01:52;2.25;;;1.55;;
19776;SDS011;10047;42.490;26.012;2023-04-01T23:04:29;4.18;;;2.70;;
19776;SDS011;10047;42.490;26.012;2023-04-01T23:07:00;4.90;;;3.25;;
19776;SDS011;10047;42.490;26.012;2023-04-01T23:09:33;3.20;;;2.50;;
19776;SDS011;10047;42.490;26.012;2023-04-01T23:33:10;3.60;;;2.72;;
19776;SDS011;10047;42.490;26.012;2023-04-01T23:35:56;2.97;;;2.47;;
19776;SDS011;10047;42.490;26.012;2023-04-01T23:38:37;4.30;;;2.70;;
19776;SDS011;10047;42.490;26.012;2023-04-01T23:41:06;4.22;;;3.05;;
19776;SDS011;10047;42.490;26.012;2023-04-01T23:43:43;4.07;;;3.10;;
19776;SDS011;10047;42.490;26.012;2023-04-01T23:46:10;4.53;;;3.72;;
19776;SDS011;10047;42.490;26.012;2023-04-01T23:48:41;4.72;;;3.65;;
19776;SDS011;10047;42.490;26.012;2023-04-01T23:51:12;7.03;;;4.32;;
19776;SDS011;10047;42.490;26.012;2023-04-01T23:53:45;4.05;;;3.28;;
19776;SDS011;10047;42.490;26.012;2023-04-01T23:56:11;4.85;;;3.45;;
